sensor_id;sensor_type;location;lat;lon;timestamp;P1;durP1;ratioP1;P2;durP2;ratioP2
29006;SDS011;16104;48.642;9.008;2022-10-31T00:00:58;7.43;;;3.53;;
29006;SDS011;16104;48.642;9.008;2022-10-31T00:05:54;7.13;;;2.90;;
29006;SDS011;16104;48.642;9.008;2022-10-31T00:10:49;9.55;;;3.58;;
29006;SDS011;16104;48.642;9.008;2022-10-31T00:15:45;7.85;;;3.03;;
29006;SDS011;16104;48.642;9.008;2022-10-31T00:20:40;6.55;;;3.70;;
29006;SDS011;16104;48.642;9.008;2022-10-31T00:25:37;5.20;;;2.92;;
29006;SDS011;16104;48.642;9.008;2022-10-31T00:30:34;6.90;;;3.30;;
29006;SDS011;16104;48.642;9.008;2022-10-31T00:35:29;7.50;;;3.53;;
29006;SDS011;16104;48.642;9.008;2022-10-31T00:40:25;4.35;;;3.20;;
29006;SDS011;16104;48.642;9.008;2022-10-31T00:45:21;8.95;;;3.20;;
29006;SDS011;16104;48.642;9.008;2022-10-31T00:50:16;7.45;;;3.30;;
29006;SDS011;16104;48.642;9.008;2022-10-31T00:55:13;6.88;;;3.08;;
29006;SDS011;16104;48.642;9.008;2022-10-31T01:00:10;5.53;;;3.00;;
29006;SDS011;16104;48.642;9.008;2022-10-31T02:01:05;5.78;;;3.17;;
29006;SDS011;16104;48.642;9.008;2022-10-31T02:06:01;11.80;;;3.60;;
29006;SDS011;16104;48.642;9.008;2022-10-31T03:01:54;8.25;;;3.92;;
29006;SDS011;16104;48.642;9.008;2022-10-31T03:07:03;6.82;;;3.50;;
29006;SDS011;16104;48.642;9.008;2022-10-31T04:09:51;6.88;;;3.90;;
29006;SDS011;16104;48.642;9.008;2022-10-31T04:14:48;6.93;;;4.13;;
29006;SDS011;16104;48.642;9.008;2022-10-31T04:19:45;8.73;;;4.07;;
29006;SDS011;16104;48.642;9.008;2022-10-31T04:24:41;6.80;;;3.47;;
29006;SDS011;16104;48.642;9.008;2022-10-31T04:29:36;6.82;;;3.58;;
29006;SDS011;16104;48.642;9.008;2022-10-31T04:34:32;8.02;;;4.10;;
29006;SDS011;16104;48.642;9.008;2022-10-31T04:44:53;12.65;;;4.53;;
29006;SDS011;16104;48.642;9.008;2022-10-31T04:49:48;8.38;;;4.00;;
29006;SDS011;16104;48.642;9.008;2022-10-31T04:54:44;7.72;;;3.65;;
29006;SDS011;16104;48.642;9.008;2022-10-31T04:59:39;10.10;;;4.00;;
29006;SDS011;16104;48.642;9.008;2022-10-31T05:04:35;8.93;;;3.55;;
29006;SDS011;16104;48.642;9.008;2022-10-31T05:09:31;10.25;;;4.18;;
29006;SDS011;16104;48.642;9.008;2022-10-31T05:14:27;7.05;;;3.35;;
29006;SDS011;16104;48.642;9.008;2022-10-31T05:19:22;5.75;;;3.58;;
29006;SDS011;16104;48.642;9.008;2022-10-31T05:24:18;5.93;;;3.63;;
29006;SDS011;16104;48.642;9.008;2022-10-31T05:29:16;6.03;;;3.90;;
29006;SDS011;16104;48.642;9.008;2022-10-31T05:34:12;6.97;;;3.63;;
29006;SDS011;16104;48.642;9.008;2022-10-31T05:39:07;7.55;;;3.88;;
29006;SDS011;16104;48.642;9.008;2022-10-31T05:44:03;7.78;;;3.72;;
29006;SDS011;16104;48.642;9.008;2022-10-31T05:48:59;8.48;;;3.55;;
29006;SDS011;16104;48.642;9.008;2022-10-31T05:53:54;6.93;;;3.75;;
29006;SDS011;16104;48.642;9.008;2022-10-31T05:58:50;7.35;;;3.47;;
29006;SDS011;16104;48.642;9.008;2022-10-31T06:03:45;10.13;;;3.40;;
29006;SDS011;16104;48.642;9.008;2022-10-31T06:08:41;8.80;;;3.55;;
29006;SDS011;16104;48.642;9.008;2022-10-31T06:13:37;5.65;;;3.40;;
29006;SDS011;16104;48.642;9.008;2022-10-31T06:18:32;8.18;;;3.92;;
29006;SDS011;16104;48.642;9.008;2022-10-31T06:23:28;9.20;;;3.55;;
29006;SDS011;16104;48.642;9.008;2022-10-31T06:28:23;8.25;;;3.47;;
29006;SDS011;16104;48.642;9.008;2022-10-31T06:33:19;6.50;;;3.13;;
29006;SDS011;16104;48.642;9.008;2022-10-31T06:38:15;4.78;;;3.28;;
29006;SDS011;16104;48.642;9.008;2022-10-31T06:43:10;5.50;;;3.60;;
29006;SDS011;16104;48.642;9.008;2022-10-31T06:48:06;7.22;;;3.63;;
29006;SDS011;16104;48.642;9.008;2022-10-31T06:53:02;6.15;;;3.25;;
29006;SDS011;16104;48.642;9.008;2022-10-31T06:57:58;8.60;;;4.05;;
29006;SDS011;16104;48.642;9.008;2022-10-31T07:03:05;6.22;;;3.70;;
29006;SDS011;16104;48.642;9.008;2022-10-31T07:08:06;7.30;;;3.42;;
29006;SDS011;16104;48.642;9.008;2022-10-31T07:13:05;13.20;;;3.95;;
29006;SDS011;16104;48.642;9.008;2022-10-31T07:22:59;6.60;;;3.10;;
29006;SDS011;16104;48.642;9.008;2022-10-31T07:27:55;8.45;;;4.05;;
29006;SDS011;16104;48.642;9.008;2022-10-31T07:32:51;8.57;;;4.35;;
29006;SDS011;16104;48.642;9.008;2022-10-31T07:37:47;10.23;;;4.15;;
29006;SDS011;16104;48.642;9.008;2022-10-31T07:42:44;11.80;;;4.25;;
29006;SDS011;16104;48.642;9.008;2022-10-31T07:47:51;7.30;;;3.72;;
29006;SDS011;16104;48.642;9.008;2022-10-31T07:52:47;7.13;;;4.03;;
29006;SDS011;16104;48.642;9.008;2022-10-31T07:57:43;9.10;;;4.13;;
29006;SDS011;16104;48.642;9.008;2022-10-31T08:02:38;11.65;;;3.72;;
29006;SDS011;16104;48.642;9.008;2022-10-31T08:07:35;10.57;;;4.03;;
29006;SDS011;16104;48.642;9.008;2022-10-31T08:12:32;7.18;;;3.70;;
29006;SDS011;16104;48.642;9.008;2022-10-31T08:17:28;8.10;;;3.50;;
29006;SDS011;16104;48.642;9.008;2022-10-31T08:22:24;10.50;;;3.33;;
29006;SDS011;16104;48.642;9.008;2022-10-31T08:27:20;10.13;;;3.55;;
29006;SDS011;16104;48.642;9.008;2022-10-31T08:32:15;5.07;;;3.03;;
29006;SDS011;16104;48.642;9.008;2022-10-31T08:37:11;6.75;;;3.42;;
29006;SDS011;16104;48.642;9.008;2022-10-31T08:42:06;8.13;;;3.83;;
29006;SDS011;16104;48.642;9.008;2022-10-31T08:47:02;7.30;;;3.58;;
29006;SDS011;16104;48.642;9.008;2022-10-31T08:51:58;10.70;;;3.72;;
29006;SDS011;16104;48.642;9.008;2022-10-31T08:56:54;7.53;;;3.60;;
29006;SDS011;16104;48.642;9.008;2022-10-31T09:01:50;11.38;;;3.85;;
29006;SDS011;16104;48.642;9.008;2022-10-31T09:06:46;8.20;;;3.80;;
29006;SDS011;16104;48.642;9.008;2022-10-31T09:11:41;7.13;;;3.38;;
29006;SDS011;16104;48.642;9.008;2022-10-31T09:16:37;8.57;;;3.30;;
29006;SDS011;16104;48.642;9.008;2022-10-31T09:21:32;8.73;;;3.70;;
29006;SDS011;16104;48.642;9.008;2022-10-31T09:26:28;5.88;;;3.33;;
29006;SDS011;16104;48.642;9.008;2022-10-31T09:31:23;7.18;;;3.35;;
29006;SDS011;16104;48.642;9.008;2022-10-31T09:36:21;8.40;;;3.40;;
29006;SDS011;16104;48.642;9.008;2022-10-31T09:41:33;10.00;;;3.22;;
29006;SDS011;16104;48.642;9.008;2022-10-31T09:46:37;9.23;;;3.78;;
29006;SDS011;16104;48.642;9.008;2022-10-31T09:52:09;6.60;;;2.95;;
29006;SDS011;16104;48.642;9.008;2022-10-31T09:57:14;4.57;;;3.00;;
29006;SDS011;16104;48.642;9.008;2022-10-31T10:02:21;6.45;;;3.10;;
29006;SDS011;16104;48.642;9.008;2022-10-31T10:07:25;11.65;;;4.00;;
29006;SDS011;16104;48.642;9.008;2022-10-31T10:17:49;8.57;;;3.25;;
29006;SDS011;16104;48.642;9.008;2022-10-31T10:23:42;7.00;;;2.78;;
29006;SDS011;16104;48.642;9.008;2022-10-31T10:28:35;12.02;;;3.13;;
29006;SDS011;16104;48.642;9.008;2022-10-31T10:33:47;12.30;;;3.13;;
29006;SDS011;16104;48.642;9.008;2022-10-31T10:39:02;8.00;;;3.55;;
29006;SDS011;16104;48.642;9.008;2022-10-31T10:44:13;8.43;;;3.40;;
29006;SDS011;16104;48.642;9.008;2022-10-31T10:59:31;10.82;;;4.25;;
29006;SDS011;16104;48.642;9.008;2022-10-31T11:09:29;8.98;;;3.20;;
29006;SDS011;16104;48.642;9.008;2022-10-31T11:14:26;8.75;;;3.35;;
29006;SDS011;16104;48.642;9.008;2022-10-31T11:19:23;9.90;;;3.28;;
29006;SDS011;16104;48.642;9.008;2022-10-31T11:24:24;6.95;;;3.45;;
29006;SDS011;16104;48.642;9.008;2022-10-31T11:29:23;6.90;;;2.97;;
29006;SDS011;16104;48.642;9.008;2022-10-31T11:34:32;7.93;;;3.50;;
29006;SDS011;16104;48.642;9.008;2022-10-31T11:39:33;9.38;;;3.75;;
29006;SDS011;16104;48.642;9.008;2022-10-31T11:44:41;10.48;;;4.45;;
29006;SDS011;16104;48.642;9.008;2022-10-31T11:49:38;6.22;;;3.67;;
29006;SDS011;16104;48.642;9.008;2022-10-31T11:54:40;9.00;;;3.78;;
29006;SDS011;16104;48.642;9.008;2022-10-31T11:59:50;8.57;;;4.03;;
29006;SDS011;16104;48.642;9.008;2022-10-31T12:05:07;9.05;;;3.83;;
29006;SDS011;16104;48.642;9.008;2022-10-31T12:10:24;8.32;;;4.05;;
29006;SDS011;16104;48.642;9.008;2022-10-31T12:20:40;5.00;;;3.10;;
29006;SDS011;16104;48.642;9.008;2022-10-31T12:31:03;7.85;;;3.53;;
29006;SDS011;16104;48.642;9.008;2022-10-31T12:46:49;6.90;;;3.63;;
29006;SDS011;16104;48.642;9.008;2022-10-31T12:51:59;7.68;;;3.30;;
29006;SDS011;16104;48.642;9.008;2022-10-31T12:57:23;7.25;;;3.60;;
29006;SDS011;16104;48.642;9.008;2022-10-31T13:02:33;5.10;;;3.30;;
29006;SDS011;16104;48.642;9.008;2022-10-31T13:07:41;5.22;;;3.38;;
29006;SDS011;16104;48.642;9.008;2022-10-31T13:12:43;6.65;;;3.72;;
29006;SDS011;16104;48.642;9.008;2022-10-31T13:17:45;4.55;;;3.25;;
29006;SDS011;16104;48.642;9.008;2022-10-31T13:22:53;10.57;;;4.43;;
29006;SDS011;16104;48.642;9.008;2022-10-31T13:48:55;12.15;;;3.72;;
29006;SDS011;16104;48.642;9.008;2022-10-31T14:04:08;15.48;;;3.60;;
29006;SDS011;16104;48.642;9.008;2022-10-31T14:09:17;8.68;;;3.42;;
29006;SDS011;16104;48.642;9.008;2022-10-31T14:14:16;12.85;;;3.40;;
29006;SDS011;16104;48.642;9.008;2022-10-31T14:19:16;9.30;;;3.50;;
29006;SDS011;16104;48.642;9.008;2022-10-31T14:24:15;10.40;;;3.50;;
29006;SDS011;16104;48.642;9.008;2022-10-31T14:29:32;11.18;;;3.35;;
29006;SDS011;16104;48.642;9.008;2022-10-31T14:34:29;9.07;;;3.25;;
29006;SDS011;16104;48.642;9.008;2022-10-31T14:55:20;5.65;;;2.88;;
29006;SDS011;16104;48.642;9.008;2022-10-31T15:00:21;7.50;;;2.88;;
29006;SDS011;16104;48.642;9.008;2022-10-31T15:05:17;6.97;;;3.25;;
29006;SDS011;16104;48.642;9.008;2022-10-31T15:10:19;5.90;;;2.78;;
29006;SDS011;16104;48.642;9.008;2022-10-31T15:15:24;6.75;;;3.75;;
29006;SDS011;16104;48.642;9.008;2022-10-31T15:20:26;8.73;;;3.20;;
29006;SDS011;16104;48.642;9.008;2022-10-31T15:25:30;7.70;;;2.85;;
29006;SDS011;16104;48.642;9.008;2022-10-31T15:30:29;6.72;;;2.65;;
29006;SDS011;16104;48.642;9.008;2022-10-31T15:35:25;4.78;;;3.22;;
29006;SDS011;16104;48.642;9.008;2022-10-31T15:40:24;9.60;;;4.32;;
29006;SDS011;16104;48.642;9.008;2022-10-31T15:45:22;7.43;;;3.95;;
29006;SDS011;16104;48.642;9.008;2022-10-31T15:50:21;9.13;;;3.87;;
29006;SDS011;16104;48.642;9.008;2022-10-31T15:55:27;10.95;;;4.20;;
29006;SDS011;16104;48.642;9.008;2022-10-31T16:00:28;8.18;;;4.38;;
29006;SDS011;16104;48.642;9.008;2022-10-31T16:05:34;9.52;;;4.90;;
29006;SDS011;16104;48.642;9.008;2022-10-31T16:10:50;8.10;;;3.83;;
29006;SDS011;16104;48.642;9.008;2022-10-31T16:15:51;20.55;;;16.90;;
29006;SDS011;16104;48.642;9.008;2022-10-31T16:20:50;19.38;;;9.40;;
29006;SDS011;16104;48.642;9.008;2022-10-31T16:25:47;22.05;;;15.60;;
29006;SDS011;16104;48.642;9.008;2022-10-31T16:30:44;23.27;;;17.90;;
29006;SDS011;16104;48.642;9.008;2022-10-31T16:35:41;15.60;;;9.80;;
29006;SDS011;16104;48.642;9.008;2022-10-31T16:40:39;13.85;;;6.30;;
29006;SDS011;16104;48.642;9.008;2022-10-31T16:45:35;11.10;;;5.30;;
29006;SDS011;16104;48.642;9.008;2022-10-31T16:50:31;13.57;;;5.53;;
29006;SDS011;16104;48.642;9.008;2022-10-31T16:55:27;12.50;;;6.72;;
29006;SDS011;16104;48.642;9.008;2022-10-31T17:00:24;11.60;;;6.50;;
29006;SDS011;16104;48.642;9.008;2022-10-31T17:05:21;20.35;;;10.10;;
29006;SDS011;16104;48.642;9.008;2022-10-31T17:10:24;12.23;;;9.10;;
29006;SDS011;16104;48.642;9.008;2022-10-31T17:15:24;10.93;;;6.60;;
29006;SDS011;16104;48.642;9.008;2022-10-31T17:20:28;9.27;;;5.30;;
29006;SDS011;16104;48.642;9.008;2022-10-31T17:25:25;7.65;;;5.07;;
29006;SDS011;16104;48.642;9.008;2022-10-31T17:30:26;12.45;;;4.72;;
29006;SDS011;16104;48.642;9.008;2022-10-31T17:35:22;8.15;;;4.25;;
29006;SDS011;16104;48.642;9.008;2022-10-31T17:40:19;7.70;;;4.50;;
29006;SDS011;16104;48.642;9.008;2022-10-31T17:45:16;8.70;;;3.97;;
29006;SDS011;16104;48.642;9.008;2022-10-31T17:50:11;12.73;;;5.10;;
29006;SDS011;16104;48.642;9.008;2022-10-31T17:55:07;5.47;;;3.95;;
29006;SDS011;16104;48.642;9.008;2022-10-31T18:00:04;10.75;;;5.15;;
29006;SDS011;16104;48.642;9.008;2022-10-31T18:05:03;12.82;;;6.93;;
29006;SDS011;16104;48.642;9.008;2022-10-31T18:09:59;15.23;;;9.05;;
29006;SDS011;16104;48.642;9.008;2022-10-31T18:14:54;16.05;;;9.98;;
29006;SDS011;16104;48.642;9.008;2022-10-31T18:19:50;21.42;;;14.43;;
29006;SDS011;16104;48.642;9.008;2022-10-31T18:24:46;26.05;;;13.57;;
29006;SDS011;16104;48.642;9.008;2022-10-31T18:29:41;16.80;;;10.05;;
29006;SDS011;16104;48.642;9.008;2022-10-31T18:34:37;12.43;;;7.82;;
29006;SDS011;16104;48.642;9.008;2022-10-31T18:39:32;18.80;;;9.02;;
29006;SDS011;16104;48.642;9.008;2022-10-31T18:44:28;20.90;;;9.00;;
29006;SDS011;16104;48.642;9.008;2022-10-31T18:49:24;17.98;;;9.40;;
29006;SDS011;16104;48.642;9.008;2022-10-31T18:54:20;15.25;;;8.27;;
29006;SDS011;16104;48.642;9.008;2022-10-31T18:59:15;16.02;;;9.70;;
29006;SDS011;16104;48.642;9.008;2022-10-31T19:04:11;15.13;;;8.57;;
29006;SDS011;16104;48.642;9.008;2022-10-31T19:09:07;11.13;;;7.60;;
29006;SDS011;16104;48.642;9.008;2022-10-31T19:14:03;13.18;;;5.28;;
29006;SDS011;16104;48.642;9.008;2022-10-31T19:19:00;13.63;;;7.43;;
29006;SDS011;16104;48.642;9.008;2022-10-31T19:24:05;12.27;;;6.13;;
29006;SDS011;16104;48.642;9.008;2022-10-31T19:29:03;11.35;;;5.45;;
29006;SDS011;16104;48.642;9.008;2022-10-31T19:33:58;14.85;;;6.18;;
29006;SDS011;16104;48.642;9.008;2022-10-31T19:38:54;18.63;;;7.10;;
29006;SDS011;16104;48.642;9.008;2022-10-31T19:43:50;11.18;;;5.82;;
29006;SDS011;16104;48.642;9.008;2022-10-31T19:48:46;12.70;;;6.78;;
29006;SDS011;16104;48.642;9.008;2022-10-31T19:53:42;11.27;;;6.80;;
29006;SDS011;16104;48.642;9.008;2022-10-31T19:58:38;12.15;;;6.45;;
29006;SDS011;16104;48.642;9.008;2022-10-31T20:03:35;15.13;;;6.70;;
29006;SDS011;16104;48.642;9.008;2022-10-31T20:08:35;15.32;;;6.07;;
29006;SDS011;16104;48.642;9.008;2022-10-31T20:13:31;14.70;;;5.95;;
29006;SDS011;16104;48.642;9.008;2022-10-31T20:18:27;9.93;;;5.53;;
29006;SDS011;16104;48.642;9.008;2022-10-31T20:23:23;16.80;;;6.63;;
29006;SDS011;16104;48.642;9.008;2022-10-31T20:28:19;10.63;;;6.60;;
29006;SDS011;16104;48.642;9.008;2022-10-31T20:33:14;19.48;;;10.00;;
29006;SDS011;16104;48.642;9.008;2022-10-31T20:38:10;17.90;;;8.38;;
29006;SDS011;16104;48.642;9.008;2022-10-31T20:43:06;15.05;;;6.95;;
29006;SDS011;16104;48.642;9.008;2022-10-31T20:48:02;13.02;;;6.70;;
29006;SDS011;16104;48.642;9.008;2022-10-31T20:52:57;16.55;;;6.32;;
29006;SDS011;16104;48.642;9.008;2022-10-31T20:57:58;13.50;;;7.40;;
29006;SDS011;16104;48.642;9.008;2022-10-31T21:02:54;14.05;;;8.15;;
29006;SDS011;16104;48.642;9.008;2022-10-31T21:07:49;15.32;;;7.53;;
29006;SDS011;16104;48.642;9.008;2022-10-31T21:12:45;10.30;;;6.63;;
29006;SDS011;16104;48.642;9.008;2022-10-31T21:17:41;15.77;;;6.93;;
29006;SDS011;16104;48.642;9.008;2022-10-31T21:22:36;13.95;;;6.53;;
29006;SDS011;16104;48.642;9.008;2022-10-31T21:27:33;16.75;;;6.63;;
29006;SDS011;16104;48.642;9.008;2022-10-31T21:32:28;13.85;;;7.20;;
29006;SDS011;16104;48.642;9.008;2022-10-31T21:37:24;12.00;;;7.47;;
29006;SDS011;16104;48.642;9.008;2022-10-31T21:42:29;11.70;;;6.22;;
29006;SDS011;16104;48.642;9.008;2022-10-31T21:47:25;13.43;;;6.55;;
29006;SDS011;16104;48.642;9.008;2022-10-31T21:52:20;10.98;;;6.03;;
29006;SDS011;16104;48.642;9.008;2022-10-31T21:57:16;13.23;;;6.63;;
29006;SDS011;16104;48.642;9.008;2022-10-31T22:02:11;12.30;;;5.97;;
29006;SDS011;16104;48.642;9.008;2022-10-31T22:07:07;12.00;;;5.63;;
29006;SDS011;16104;48.642;9.008;2022-10-31T22:12:02;13.45;;;6.05;;
29006;SDS011;16104;48.642;9.008;2022-10-31T22:17:00;13.30;;;6.18;;
29006;SDS011;16104;48.642;9.008;2022-10-31T22:21:56;15.20;;;5.60;;
29006;SDS011;16104;48.642;9.008;2022-10-31T22:26:51;11.60;;;5.75;;
29006;SDS011;16104;48.642;9.008;2022-10-31T22:31:53;12.73;;;5.80;;
29006;SDS011;16104;48.642;9.008;2022-10-31T22:36:49;14.85;;;5.88;;
29006;SDS011;16104;48.642;9.008;2022-10-31T22:41:44;10.07;;;5.00;;
29006;SDS011;16104;48.642;9.008;2022-10-31T22:46:40;7.70;;;4.95;;
29006;SDS011;16104;48.642;9.008;2022-10-31T22:51:37;15.13;;;5.53;;
29006;SDS011;16104;48.642;9.008;2022-10-31T22:56:33;15.52;;;5.57;;
29006;SDS011;16104;48.642;9.008;2022-10-31T23:01:30;17.20;;;4.97;;
29006;SDS011;16104;48.642;9.008;2022-10-31T23:06:27;8.13;;;5.22;;
29006;SDS011;16104;48.642;9.008;2022-10-31T23:11:25;8.50;;;4.68;;
29006;SDS011;16104;48.642;9.008;2022-10-31T23:16:21;10.68;;;4.85;;
29006;SDS011;16104;48.642;9.008;2022-10-31T23:21:17;14.02;;;5.07;;
29006;SDS011;16104;48.642;9.008;2022-10-31T23:26:31;11.38;;;4.82;;
29006;SDS011;16104;48.642;9.008;2022-10-31T23:31:45;10.48;;;5.80;;
29006;SDS011;16104;48.642;9.008;2022-10-31T23:36:41;9.95;;;4.13;;
29006;SDS011;16104;48.642;9.008;2022-10-31T23:41:37;10.05;;;4.70;;
29006;SDS011;16104;48.642;9.008;2022-10-31T23:46:33;10.68;;;4.53;;
29006;SDS011;16104;48.642;9.008;2022-10-31T23:51:29;8.80;;;4.72;;
29006;SDS011;16104;48.642;9.008;2022-10-31T23:56:25;15.40;;;6.03;;
